sensor_id;sensor_type;location;lat;lon;timestamp;temperature;humidity
57390;DHT22;43217;52.694;6.214;2022-12-13T00:02:14;-2.70;99.90
57390;DHT22;43217;52.694;6.214;2022-12-13T00:04:40;-2.70;99.90
57390;DHT22;43217;52.694;6.214;2022-12-13T00:07:06;-2.70;99.90
57390;DHT22;43217;52.694;6.214;2022-12-13T00:09:31;-2.70;99.90
57390;DHT22;43217;52.694;6.214;2022-12-13T00:11:57;-2.70;99.90
57390;DHT22;43217;52.694;6.214;2022-12-13T00:14:23;-2.70;99.90
57390;DHT22;43217;52.694;6.214;2022-12-13T00:16:49;-2.70;99.90
57390;DHT22;43217;52.694;6.214;2022-12-13T00:19:16;-2.80;99.90
57390;DHT22;43217;52.694;6.214;2022-12-13T00:21:41;-2.90;99.90
57390;DHT22;43217;52.694;6.214;2022-12-13T00:24:08;-2.90;99.90
57390;DHT22;43217;52.694;6.214;2022-12-13T00:26:34;-2.90;99.90
57390;DHT22;43217;52.694;6.214;2022-12-13T00:29:01;-2.90;99.90
57390;DHT22;43217;52.694;6.214;2022-12-13T00:31:28;-2.90;99.90
57390;DHT22;43217;52.694;6.214;2022-12-13T00:33:56;-2.90;99.90
57390;DHT22;43217;52.694;6.214;2022-12-13T00:36:22;-2.90;99.90
57390;DHT22;43217;52.694;6.214;2022-12-13T00:38:48;-2.90;99.90
57390;DHT22;43217;52.694;6.214;2022-12-13T00:41:26;-2.90;99.90
57390;DHT22;43217;52.694;6.214;2022-12-13T00:43:52;-2.90;99.90
57390;DHT22;43217;52.694;6.214;2022-12-13T00:46:19;-2.90;99.90
57390;DHT22;43217;52.694;6.214;2022-12-13T00:48:50;-3.00;99.90
57390;DHT22;43217;52.694;6.214;2022-12-13T00:51:17;-3.00;99.90
57390;DHT22;43217;52.694;6.214;2022-12-13T00:53:43;-3.00;99.90
57390;DHT22;43217;52.694;6.214;2022-12-13T00:56:11;-3.00;99.90
57390;DHT22;43217;52.694;6.214;2022-12-13T00:58:38;-3.10;99.90
57390;DHT22;43217;52.694;6.214;2022-12-13T01:01:05;-3.10;99.90
57390;DHT22;43217;52.694;6.214;2022-12-13T01:03:31;-3.20;99.90
57390;DHT22;43217;52.694;6.214;2022-12-13T01:05:57;-3.20;99.90
57390;DHT22;43217;52.694;6.214;2022-12-13T01:08:23;-3.30;99.90
57390;DHT22;43217;52.694;6.214;2022-12-13T01:10:49;-3.30;99.90
57390;DHT22;43217;52.694;6.214;2022-12-13T01:13:14;-3.40;99.90
57390;DHT22;43217;52.694;6.214;2022-12-13T01:15:41;-3.40;99.90
57390;DHT22;43217;52.694;6.214;2022-12-13T01:18:08;-3.40;99.90
57390;DHT22;43217;52.694;6.214;2022-12-13T01:20:33;-3.40;99.90
57390;DHT22;43217;52.694;6.214;2022-12-13T01:22:59;-3.40;99.90
57390;DHT22;43217;52.694;6.214;2022-12-13T01:25:25;-3.40;99.90
57390;DHT22;43217;52.694;6.214;2022-12-13T01:27:50;-3.40;99.90
57390;DHT22;43217;52.694;6.214;2022-12-13T01:30:16;-3.40;99.90
57390;DHT22;43217;52.694;6.214;2022-12-13T01:32:42;-3.30;99.90
57390;DHT22;43217;52.694;6.214;2022-12-13T01:35:07;-3.30;99.90
57390;DHT22;43217;52.694;6.214;2022-12-13T01:37:33;-3.30;99.90
57390;DHT22;43217;52.694;6.214;2022-12-13T01:40:04;-3.30;99.90
57390;DHT22;43217;52.694;6.214;2022-12-13T01:42:30;-3.30;99.90
57390;DHT22;43217;52.694;6.214;2022-12-13T01:50:05;-3.60;99.90
57390;DHT22;43217;52.694;6.214;2022-12-13T01:52:33;-3.70;99.90
57390;DHT22;43217;52.694;6.214;2022-12-13T01:55:00;-3.70;99.90
57390;DHT22;43217;52.694;6.214;2022-12-13T01:57:28;-3.80;99.90
57390;DHT22;43217;52.694;6.214;2022-12-13T01:59:55;-3.90;99.90
57390;DHT22;43217;52.694;6.214;2022-12-13T02:02:21;-4.00;99.90
57390;DHT22;43217;52.694;6.214;2022-12-13T02:04:56;-4.00;99.90
57390;DHT22;43217;52.694;6.214;2022-12-13T02:07:27;-4.00;99.90
57390;DHT22;43217;52.694;6.214;2022-12-13T02:09:56;-4.00;99.90
57390;DHT22;43217;52.694;6.214;2022-12-13T02:12:27;-4.00;99.90
57390;DHT22;43217;52.694;6.214;2022-12-13T02:14:53;-4.00;99.90
57390;DHT22;43217;52.694;6.214;2022-12-13T02:26:06;-3.90;99.90
57390;DHT22;43217;52.694;6.214;2022-12-13T02:31:29;-4.00;99.90
57390;DHT22;43217;52.694;6.214;2022-12-13T02:36:40;-4.00;99.90
57390;DHT22;43217;52.694;6.214;2022-12-13T02:39:24;-4.10;99.90
57390;DHT22;43217;52.694;6.214;2022-12-13T02:42:08;-4.10;99.90
57390;DHT22;43217;52.694;6.214;2022-12-13T02:44:44;-4.20;99.90
57390;DHT22;43217;52.694;6.214;2022-12-13T02:47:21;-4.20;99.90
57390;DHT22;43217;52.694;6.214;2022-12-13T02:49:50;-4.20;99.90
57390;DHT22;43217;52.694;6.214;2022-12-13T02:52:19;-4.30;99.90
57390;DHT22;43217;52.694;6.214;2022-12-13T02:54:47;-4.30;99.90
57390;DHT22;43217;52.694;6.214;2022-12-13T02:57:37;-4.30;99.90
57390;DHT22;43217;52.694;6.214;2022-12-13T03:05:29;-4.30;99.90
57390;DHT22;43217;52.694;6.214;2022-12-13T03:08:24;-4.30;99.90
57390;DHT22;43217;52.694;6.214;2022-12-13T03:11:05;-4.30;99.90
57390;DHT22;43217;52.694;6.214;2022-12-13T03:13:40;-4.30;99.90
57390;DHT22;43217;52.694;6.214;2022-12-13T03:16:35;-4.30;99.90
57390;DHT22;43217;52.694;6.214;2022-12-13T03:19:07;-4.30;99.90
57390;DHT22;43217;52.694;6.214;2022-12-13T03:21:51;-4.20;99.90
57390;DHT22;43217;52.694;6.214;2022-12-13T03:24:19;-4.20;99.90
57390;DHT22;43217;52.694;6.214;2022-12-13T03:26:46;-4.10;99.90
57390;DHT22;43217;52.694;6.214;2022-12-13T03:29:12;-4.10;99.90
57390;DHT22;43217;52.694;6.214;2022-12-13T03:31:38;-4.00;99.90
57390;DHT22;43217;52.694;6.214;2022-12-13T03:34:03;-3.90;99.90
57390;DHT22;43217;52.694;6.214;2022-12-13T03:36:29;-3.90;99.90
57390;DHT22;43217;52.694;6.214;2022-12-13T03:38:55;-3.80;99.90
57390;DHT22;43217;52.694;6.214;2022-12-13T03:41:23;-3.70;99.90
57390;DHT22;43217;52.694;6.214;2022-12-13T03:43:56;-3.70;99.90
57390;DHT22;43217;52.694;6.214;2022-12-13T03:46:22;-3.60;99.90
57390;DHT22;43217;52.694;6.214;2022-12-13T03:48:48;-3.60;99.90
57390;DHT22;43217;52.694;6.214;2022-12-13T03:51:13;-3.60;99.90
57390;DHT22;43217;52.694;6.214;2022-12-13T03:53:39;-3.60;99.90
57390;DHT22;43217;52.694;6.214;2022-12-13T03:56:05;-3.60;99.90
57390;DHT22;43217;52.694;6.214;2022-12-13T03:58:32;-3.70;99.90
57390;DHT22;43217;52.694;6.214;2022-12-13T04:00:58;-3.70;99.90
57390;DHT22;43217;52.694;6.214;2022-12-13T04:03:24;-3.70;99.90
57390;DHT22;43217;52.694;6.214;2022-12-13T04:05:50;-3.70;99.90
57390;DHT22;43217;52.694;6.214;2022-12-13T04:08:16;-3.70;99.90
57390;DHT22;43217;52.694;6.214;2022-12-13T04:10:41;-3.80;99.90
57390;DHT22;43217;52.694;6.214;2022-12-13T04:13:09;-3.90;99.90
57390;DHT22;43217;52.694;6.214;2022-12-13T04:15:53;-3.90;99.90
57390;DHT22;43217;52.694;6.214;2022-12-13T04:18:20;-4.10;99.90
57390;DHT22;43217;52.694;6.214;2022-12-13T04:20:46;-4.10;99.90
57390;DHT22;43217;52.694;6.214;2022-12-13T04:23:12;-4.10;99.90
57390;DHT22;43217;52.694;6.214;2022-12-13T04:25:38;-4.10;99.90
57390;DHT22;43217;52.694;6.214;2022-12-13T04:28:04;-4.10;99.90
57390;DHT22;43217;52.694;6.214;2022-12-13T04:30:30;-4.00;99.90
57390;DHT22;43217;52.694;6.214;2022-12-13T04:32:56;-4.00;99.90
57390;DHT22;43217;52.694;6.214;2022-12-13T04:35:21;-4.00;99.90
57390;DHT22;43217;52.694;6.214;2022-12-13T04:37:47;-4.00;99.90
57390;DHT22;43217;52.694;6.214;2022-12-13T04:40:13;-3.90;99.90
57390;DHT22;43217;52.694;6.214;2022-12-13T04:42:38;-3.90;99.90
57390;DHT22;43217;52.694;6.214;2022-12-13T04:45:05;-3.90;99.90
57390;DHT22;43217;52.694;6.214;2022-12-13T04:47:30;-3.90;99.90
57390;DHT22;43217;52.694;6.214;2022-12-13T04:49:56;-3.90;99.90
57390;DHT22;43217;52.694;6.214;2022-12-13T04:52:22;-3.90;99.90
57390;DHT22;43217;52.694;6.214;2022-12-13T04:54:48;-3.90;99.90
57390;DHT22;43217;52.694;6.214;2022-12-13T04:57:13;-4.00;99.90
57390;DHT22;43217;52.694;6.214;2022-12-13T04:59:39;-4.00;99.90
57390;DHT22;43217;52.694;6.214;2022-12-13T05:02:06;-4.10;99.90
57390;DHT22;43217;52.694;6.214;2022-12-13T05:04:32;-4.10;99.90
57390;DHT22;43217;52.694;6.214;2022-12-13T05:06:59;-4.10;99.90
57390;DHT22;43217;52.694;6.214;2022-12-13T05:09:24;-4.10;99.90
57390;DHT22;43217;52.694;6.214;2022-12-13T05:11:50;-4.20;99.90
57390;DHT22;43217;52.694;6.214;2022-12-13T05:14:15;-4.30;99.90
57390;DHT22;43217;52.694;6.214;2022-12-13T05:16:41;-4.40;99.90
57390;DHT22;43217;52.694;6.214;2022-12-13T05:19:07;-4.40;99.90
57390;DHT22;43217;52.694;6.214;2022-12-13T05:21:32;-4.50;99.90
57390;DHT22;43217;52.694;6.214;2022-12-13T05:24:02;-4.50;99.90
57390;DHT22;43217;52.694;6.214;2022-12-13T05:26:28;-4.60;99.90
57390;DHT22;43217;52.694;6.214;2022-12-13T05:28:55;-4.60;99.90
57390;DHT22;43217;52.694;6.214;2022-12-13T05:31:21;-4.60;99.90
57390;DHT22;43217;52.694;6.214;2022-12-13T05:33:47;-4.70;99.90
57390;DHT22;43217;52.694;6.214;2022-12-13T05:36:13;-4.60;99.90
57390;DHT22;43217;52.694;6.214;2022-12-13T05:38:38;-4.60;99.90
57390;DHT22;43217;52.694;6.214;2022-12-13T05:41:05;-4.60;99.90
57390;DHT22;43217;52.694;6.214;2022-12-13T05:43:31;-4.60;99.90
57390;DHT22;43217;52.694;6.214;2022-12-13T05:45:56;-4.60;99.90
57390;DHT22;43217;52.694;6.214;2022-12-13T05:48:22;-4.60;99.90
57390;DHT22;43217;52.694;6.214;2022-12-13T05:50:47;-4.60;99.90
57390;DHT22;43217;52.694;6.214;2022-12-13T05:53:13;-4.60;99.90
57390;DHT22;43217;52.694;6.214;2022-12-13T05:55:40;-4.60;99.90
57390;DHT22;43217;52.694;6.214;2022-12-13T05:58:07;-4.60;99.90
57390;DHT22;43217;52.694;6.214;2022-12-13T06:00:33;-4.60;99.90
57390;DHT22;43217;52.694;6.214;2022-12-13T06:02:59;-4.60;99.90
57390;DHT22;43217;52.694;6.214;2022-12-13T06:05:25;-4.60;99.90
57390;DHT22;43217;52.694;6.214;2022-12-13T06:07:52;-4.50;99.90
57390;DHT22;43217;52.694;6.214;2022-12-13T06:10:18;-4.50;99.90
57390;DHT22;43217;52.694;6.214;2022-12-13T06:12:43;-4.50;99.90
57390;DHT22;43217;52.694;6.214;2022-12-13T06:15:09;-4.50;99.90
57390;DHT22;43217;52.694;6.214;2022-12-13T06:17:35;-4.50;99.90
57390;DHT22;43217;52.694;6.214;2022-12-13T06:20:02;-4.50;99.90
57390;DHT22;43217;52.694;6.214;2022-12-13T06:22:28;-4.40;99.90
57390;DHT22;43217;52.694;6.214;2022-12-13T06:24:53;-4.40;99.90
57390;DHT22;43217;52.694;6.214;2022-12-13T06:27:19;-4.40;99.90
57390;DHT22;43217;52.694;6.214;2022-12-13T06:29:45;-4.30;99.90
57390;DHT22;43217;52.694;6.214;2022-12-13T06:32:11;-4.30;99.90
57390;DHT22;43217;52.694;6.214;2022-12-13T06:34:36;-4.30;99.90
57390;DHT22;43217;52.694;6.214;2022-12-13T06:37:04;-4.20;99.90
57390;DHT22;43217;52.694;6.214;2022-12-13T06:39:31;-4.20;99.90
57390;DHT22;43217;52.694;6.214;2022-12-13T06:41:57;-4.20;99.90
57390;DHT22;43217;52.694;6.214;2022-12-13T06:44:22;-4.10;99.90
57390;DHT22;43217;52.694;6.214;2022-12-13T06:46:48;-4.20;99.90
57390;DHT22;43217;52.694;6.214;2022-12-13T06:49:13;-4.20;99.90
57390;DHT22;43217;52.694;6.214;2022-12-13T06:51:39;-4.20;99.90
57390;DHT22;43217;52.694;6.214;2022-12-13T06:54:04;-4.10;99.90
57390;DHT22;43217;52.694;6.214;2022-12-13T06:56:30;-4.10;99.90
57390;DHT22;43217;52.694;6.214;2022-12-13T06:58:57;-4.10;99.90
57390;DHT22;43217;52.694;6.214;2022-12-13T07:01:23;-4.10;99.90
57390;DHT22;43217;52.694;6.214;2022-12-13T07:03:48;-4.20;99.90
57390;DHT22;43217;52.694;6.214;2022-12-13T07:06:19;-4.10;99.90
57390;DHT22;43217;52.694;6.214;2022-12-13T07:08:53;-4.10;99.90
57390;DHT22;43217;52.694;6.214;2022-12-13T07:11:23;-4.10;99.90
57390;DHT22;43217;52.694;6.214;2022-12-13T07:13:50;-4.10;99.90
57390;DHT22;43217;52.694;6.214;2022-12-13T07:16:16;-4.10;99.90
57390;DHT22;43217;52.694;6.214;2022-12-13T07:18:42;-4.10;99.90
57390;DHT22;43217;52.694;6.214;2022-12-13T07:21:09;-4.10;99.90
57390;DHT22;43217;52.694;6.214;2022-12-13T07:23:38;-4.10;99.90
57390;DHT22;43217;52.694;6.214;2022-12-13T07:26:04;-4.10;99.90
57390;DHT22;43217;52.694;6.214;2022-12-13T07:28:34;-4.10;99.90
57390;DHT22;43217;52.694;6.214;2022-12-13T07:31:05;-4.20;99.90
57390;DHT22;43217;52.694;6.214;2022-12-13T07:33:31;-4.20;99.90
57390;DHT22;43217;52.694;6.214;2022-12-13T07:36:11;-4.30;99.90
57390;DHT22;43217;52.694;6.214;2022-12-13T07:38:37;-4.30;99.90
57390;DHT22;43217;52.694;6.214;2022-12-13T07:41:04;-4.30;99.90
57390;DHT22;43217;52.694;6.214;2022-12-13T07:43:34;-4.30;99.90
57390;DHT22;43217;52.694;6.214;2022-12-13T07:46:01;-4.30;99.90
57390;DHT22;43217;52.694;6.214;2022-12-13T07:48:27;-4.30;99.90
57390;DHT22;43217;52.694;6.214;2022-12-13T07:51:01;-4.40;99.90
57390;DHT22;43217;52.694;6.214;2022-12-13T07:53:27;-4.40;99.90
57390;DHT22;43217;52.694;6.214;2022-12-13T07:55:53;-4.40;99.90
57390;DHT22;43217;52.694;6.214;2022-12-13T07:58:19;-4.50;99.90
57390;DHT22;43217;52.694;6.214;2022-12-13T08:00:45;-4.50;99.90
57390;DHT22;43217;52.694;6.214;2022-12-13T08:03:12;-4.40;99.90
57390;DHT22;43217;52.694;6.214;2022-12-13T08:05:38;-4.40;99.90
57390;DHT22;43217;52.694;6.214;2022-12-13T08:08:05;-4.40;99.90
57390;DHT22;43217;52.694;6.214;2022-12-13T08:10:31;-4.30;99.90
57390;DHT22;43217;52.694;6.214;2022-12-13T08:12:57;-4.30;99.90
57390;DHT22;43217;52.694;6.214;2022-12-13T08:15:23;-4.30;99.90
57390;DHT22;43217;52.694;6.214;2022-12-13T08:17:50;-4.30;99.90
57390;DHT22;43217;52.694;6.214;2022-12-13T08:20:22;-4.20;99.90
57390;DHT22;43217;52.694;6.214;2022-12-13T08:22:55;-4.20;99.90
57390;DHT22;43217;52.694;6.214;2022-12-13T08:25:26;-4.20;99.90
57390;DHT22;43217;52.694;6.214;2022-12-13T08:27:51;-4.20;99.90
57390;DHT22;43217;52.694;6.214;2022-12-13T08:30:18;-4.20;99.90
57390;DHT22;43217;52.694;6.214;2022-12-13T08:32:44;-4.20;99.90
57390;DHT22;43217;52.694;6.214;2022-12-13T08:35:10;-4.20;99.90
57390;DHT22;43217;52.694;6.214;2022-12-13T08:37:36;-4.20;99.90
57390;DHT22;43217;52.694;6.214;2022-12-13T08:40:02;-4.20;99.90
57390;DHT22;43217;52.694;6.214;2022-12-13T08:42:29;-4.20;99.90
57390;DHT22;43217;52.694;6.214;2022-12-13T08:44:55;-4.20;99.90
57390;DHT22;43217;52.694;6.214;2022-12-13T08:47:25;-4.20;99.90
57390;DHT22;43217;52.694;6.214;2022-12-13T08:49:53;-4.20;99.90
57390;DHT22;43217;52.694;6.214;2022-12-13T08:52:22;-4.20;99.90
57390;DHT22;43217;52.694;6.214;2022-12-13T08:55:10;-4.10;99.90
57390;DHT22;43217;52.694;6.214;2022-12-13T08:57:50;-4.10;99.90
57390;DHT22;43217;52.694;6.214;2022-12-13T09:00:17;-4.10;99.90
57390;DHT22;43217;52.694;6.214;2022-12-13T09:02:43;-4.10;99.90
57390;DHT22;43217;52.694;6.214;2022-12-13T09:05:09;-4.10;99.90
57390;DHT22;43217;52.694;6.214;2022-12-13T09:07:35;-4.10;99.90
57390;DHT22;43217;52.694;6.214;2022-12-13T09:10:02;-4.00;99.90
57390;DHT22;43217;52.694;6.214;2022-12-13T09:12:28;-4.00;99.90
57390;DHT22;43217;52.694;6.214;2022-12-13T09:14:53;-4.00;99.90
57390;DHT22;43217;52.694;6.214;2022-12-13T09:17:19;-3.90;99.90
57390;DHT22;43217;52.694;6.214;2022-12-13T09:19:45;-3.90;99.90
57390;DHT22;43217;52.694;6.214;2022-12-13T09:22:11;-3.80;99.90
57390;DHT22;43217;52.694;6.214;2022-12-13T09:24:36;-3.80;99.90
57390;DHT22;43217;52.694;6.214;2022-12-13T09:27:05;-3.70;99.90
57390;DHT22;43217;52.694;6.214;2022-12-13T09:29:32;-3.60;99.90
57390;DHT22;43217;52.694;6.214;2022-12-13T09:32:00;-3.60;99.90
57390;DHT22;43217;52.694;6.214;2022-12-13T09:34:27;-3.50;99.90
57390;DHT22;43217;52.694;6.214;2022-12-13T09:36:57;-3.40;99.90
57390;DHT22;43217;52.694;6.214;2022-12-13T09:39:22;-3.30;99.90
57390;DHT22;43217;52.694;6.214;2022-12-13T09:41:58;-3.30;99.90
57390;DHT22;43217;52.694;6.214;2022-12-13T09:44:26;-3.20;99.90
57390;DHT22;43217;52.694;6.214;2022-12-13T09:46:53;-3.20;99.90
57390;DHT22;43217;52.694;6.214;2022-12-13T09:51:49;-3.10;99.90
57390;DHT22;43217;52.694;6.214;2022-12-13T09:54:21;-3.00;99.90
57390;DHT22;43217;52.694;6.214;2022-12-13T09:56:49;-2.90;99.90
57390;DHT22;43217;52.694;6.214;2022-12-13T09:59:17;-2.90;99.90
57390;DHT22;43217;52.694;6.214;2022-12-13T10:01:44;-2.80;99.90
57390;DHT22;43217;52.694;6.214;2022-12-13T10:04:12;-2.70;99.90
57390;DHT22;43217;52.694;6.214;2022-12-13T10:06:40;-2.70;99.90
57390;DHT22;43217;52.694;6.214;2022-12-13T10:09:08;-2.60;99.90
57390;DHT22;43217;52.694;6.214;2022-12-13T10:11:35;-2.50;99.90
57390;DHT22;43217;52.694;6.214;2022-12-13T10:14:11;-2.50;99.90
57390;DHT22;43217;52.694;6.214;2022-12-13T10:16:45;-2.40;99.90
57390;DHT22;43217;52.694;6.214;2022-12-13T10:21:57;-2.30;99.90
57390;DHT22;43217;52.694;6.214;2022-12-13T10:24:27;-2.30;99.90
57390;DHT22;43217;52.694;6.214;2022-12-13T10:27:13;-2.20;99.90
57390;DHT22;43217;52.694;6.214;2022-12-13T10:32:27;-2.00;99.90
57390;DHT22;43217;52.694;6.214;2022-12-13T10:34:54;-2.00;99.90
57390;DHT22;43217;52.694;6.214;2022-12-13T10:39:49;-1.90;99.90
57390;DHT22;43217;52.694;6.214;2022-12-13T10:42:17;-1.80;99.90
57390;DHT22;43217;52.694;6.214;2022-12-13T10:44:43;-1.80;99.90
57390;DHT22;43217;52.694;6.214;2022-12-13T10:52:04;-1.60;99.90
57390;DHT22;43217;52.694;6.214;2022-12-13T10:54:32;-1.60;99.90
57390;DHT22;43217;52.694;6.214;2022-12-13T10:57:01;-1.50;99.90
57390;DHT22;43217;52.694;6.214;2022-12-13T10:59:33;-1.50;99.90
57390;DHT22;43217;52.694;6.214;2022-12-13T11:02:00;-1.40;99.90
57390;DHT22;43217;52.694;6.214;2022-12-13T11:04:33;-1.40;99.90
57390;DHT22;43217;52.694;6.214;2022-12-13T11:07:01;-1.30;99.90
57390;DHT22;43217;52.694;6.214;2022-12-13T11:09:44;-1.30;99.90
57390;DHT22;43217;52.694;6.214;2022-12-13T11:12:15;-1.30;99.90
57390;DHT22;43217;52.694;6.214;2022-12-13T11:14:55;-1.20;99.90
57390;DHT22;43217;52.694;6.214;2022-12-13T11:17:25;-1.20;99.90
57390;DHT22;43217;52.694;6.214;2022-12-13T11:20:01;-1.10;99.90
57390;DHT22;43217;52.694;6.214;2022-12-13T11:22:36;-1.10;99.90
57390;DHT22;43217;52.694;6.214;2022-12-13T11:25:27;-1.00;99.90
57390;DHT22;43217;52.694;6.214;2022-12-13T11:28:32;-1.00;99.90
57390;DHT22;43217;52.694;6.214;2022-12-13T11:31:23;-0.90;99.90
57390;DHT22;43217;52.694;6.214;2022-12-13T11:34:22;-0.90;99.90
57390;DHT22;43217;52.694;6.214;2022-12-13T11:40:04;-0.80;99.90
57390;DHT22;43217;52.694;6.214;2022-12-13T11:42:41;-0.80;99.90
57390;DHT22;43217;52.694;6.214;2022-12-13T11:45:14;-0.80;99.90
57390;DHT22;43217;52.694;6.214;2022-12-13T11:47:54;-0.70;99.90
57390;DHT22;43217;52.694;6.214;2022-12-13T11:50:50;-0.70;99.90
57390;DHT22;43217;52.694;6.214;2022-12-13T11:56:09;-0.60;99.90
57390;DHT22;43217;52.694;6.214;2022-12-13T11:58:47;-0.60;99.90
57390;DHT22;43217;52.694;6.214;2022-12-13T12:01:18;-0.50;99.90
57390;DHT22;43217;52.694;6.214;2022-12-13T12:03:56;-0.50;99.90
57390;DHT22;43217;52.694;6.214;2022-12-13T12:06:37;-0.40;99.90
57390;DHT22;43217;52.694;6.214;2022-12-13T12:09:09;-0.40;99.90
57390;DHT22;43217;52.694;6.214;2022-12-13T12:14:42;-0.40;99.90
57390;DHT22;43217;52.694;6.214;2022-12-13T12:17:12;-0.40;99.90
57390;DHT22;43217;52.694;6.214;2022-12-13T12:19:41;-0.30;99.90
57390;DHT22;43217;52.694;6.214;2022-12-13T12:25:18;-0.30;99.90
57390;DHT22;43217;52.694;6.214;2022-12-13T12:27:53;-0.30;99.90
57390;DHT22;43217;52.694;6.214;2022-12-13T12:30:31;-0.30;99.90
57390;DHT22;43217;52.694;6.214;2022-12-13T12:33:21;-0.20;99.90
57390;DHT22;43217;52.694;6.214;2022-12-13T12:38:58;-0.20;99.90
57390;DHT22;43217;52.694;6.214;2022-12-13T12:41:51;-0.20;99.90
57390;DHT22;43217;52.694;6.214;2022-12-13T12:49:43;-0.10;99.90
57390;DHT22;43217;52.694;6.214;2022-12-13T12:58:29;0.00;99.90
57390;DHT22;43217;52.694;6.214;2022-12-13T13:01:23;0.00;99.90
57390;DHT22;43217;52.694;6.214;2022-12-13T13:04:05;0.00;99.90
57390;DHT22;43217;52.694;6.214;2022-12-13T13:06:40;0.00;99.90
57390;DHT22;43217;52.694;6.214;2022-12-13T13:09:11;-0.10;99.90
57390;DHT22;43217;52.694;6.214;2022-12-13T13:11:42;-0.10;99.90
57390;DHT22;43217;52.694;6.214;2022-12-13T13:14:27;-0.10;99.90
57390;DHT22;43217;52.694;6.214;2022-12-13T13:16:55;-0.20;99.90
57390;DHT22;43217;52.694;6.214;2022-12-13T13:21:54;-0.20;99.90
57390;DHT22;43217;52.694;6.214;2022-12-13T13:29:39;-0.20;99.90
57390;DHT22;43217;52.694;6.214;2022-12-13T13:32:26;-0.30;99.90
57390;DHT22;43217;52.694;6.214;2022-12-13T13:34:51;-0.20;99.90
57390;DHT22;43217;52.694;6.214;2022-12-13T13:45:58;-0.30;99.90
57390;DHT22;43217;52.694;6.214;2022-12-13T13:59:44;-0.30;99.90
57390;DHT22;43217;52.694;6.214;2022-12-13T14:02:39;-0.40;99.90
57390;DHT22;43217;52.694;6.214;2022-12-13T14:10:49;-0.50;99.90
57390;DHT22;43217;52.694;6.214;2022-12-13T14:22:13;-0.60;99.90
57390;DHT22;43217;52.694;6.214;2022-12-13T14:25:03;-0.60;99.90
57390;DHT22;43217;52.694;6.214;2022-12-13T14:27:36;-0.60;99.90
57390;DHT22;43217;52.694;6.214;2022-12-13T14:30:05;-0.70;99.90
57390;DHT22;43217;52.694;6.214;2022-12-13T14:32:33;-0.80;99.90
57390;DHT22;43217;52.694;6.214;2022-12-13T14:35:01;-0.80;99.90
57390;DHT22;43217;52.694;6.214;2022-12-13T14:37:34;-0.80;99.90
57390;DHT22;43217;52.694;6.214;2022-12-13T14:40:28;-0.90;99.90
57390;DHT22;43217;52.694;6.214;2022-12-13T14:42:55;-0.90;99.90
57390;DHT22;43217;52.694;6.214;2022-12-13T14:45:33;-0.90;99.90
57390;DHT22;43217;52.694;6.214;2022-12-13T14:48:03;-1.00;99.90
57390;DHT22;43217;52.694;6.214;2022-12-13T14:50:34;-1.00;99.90
57390;DHT22;43217;52.694;6.214;2022-12-13T14:53:00;-1.10;99.90
57390;DHT22;43217;52.694;6.214;2022-12-13T14:55:31;-1.00;99.90
57390;DHT22;43217;52.694;6.214;2022-12-13T14:57:59;-1.10;99.90
57390;DHT22;43217;52.694;6.214;2022-12-13T15:00:27;-1.10;99.90
57390;DHT22;43217;52.694;6.214;2022-12-13T15:02:56;-1.20;99.90
57390;DHT22;43217;52.694;6.214;2022-12-13T15:05:24;-1.20;99.90
57390;DHT22;43217;52.694;6.214;2022-12-13T15:07:50;-1.20;99.90
57390;DHT22;43217;52.694;6.214;2022-12-13T15:10:36;-1.20;99.90
57390;DHT22;43217;52.694;6.214;2022-12-13T15:13:03;-1.30;99.90
57390;DHT22;43217;52.694;6.214;2022-12-13T15:15:32;-1.30;99.90
57390;DHT22;43217;52.694;6.214;2022-12-13T15:18:18;-1.30;99.90
57390;DHT22;43217;52.694;6.214;2022-12-13T15:20:45;-1.40;99.90
57390;DHT22;43217;52.694;6.214;2022-12-13T15:23:33;-1.40;99.90
57390;DHT22;43217;52.694;6.214;2022-12-13T15:26:06;-1.40;99.90
57390;DHT22;43217;52.694;6.214;2022-12-13T15:28:34;-1.50;99.90
57390;DHT22;43217;52.694;6.214;2022-12-13T15:31:04;-1.50;99.90
57390;DHT22;43217;52.694;6.214;2022-12-13T15:33:30;-1.50;99.90
57390;DHT22;43217;52.694;6.214;2022-12-13T15:36:06;-1.60;99.90
57390;DHT22;43217;52.694;6.214;2022-12-13T15:38:40;-1.60;99.90
57390;DHT22;43217;52.694;6.214;2022-12-13T15:41:15;-1.60;99.90
57390;DHT22;43217;52.694;6.214;2022-12-13T15:43:47;-1.70;99.90
57390;DHT22;43217;52.694;6.214;2022-12-13T15:46:23;-1.70;99.90
57390;DHT22;43217;52.694;6.214;2022-12-13T15:48:49;-1.70;99.90
57390;DHT22;43217;52.694;6.214;2022-12-13T15:51:17;-1.70;99.90
57390;DHT22;43217;52.694;6.214;2022-12-13T15:54:06;-1.70;99.90
57390;DHT22;43217;52.694;6.214;2022-12-13T15:59:36;-1.80;99.90
57390;DHT22;43217;52.694;6.214;2022-12-13T16:02:03;-1.80;99.90
57390;DHT22;43217;52.694;6.214;2022-12-13T16:04:37;-1.80;99.90
57390;DHT22;43217;52.694;6.214;2022-12-13T16:07:02;-1.80;99.90
57390;DHT22;43217;52.694;6.214;2022-12-13T16:09:33;-1.90;99.90
57390;DHT22;43217;52.694;6.214;2022-12-13T16:12:02;-1.90;99.90
57390;DHT22;43217;52.694;6.214;2022-12-13T16:14:41;-1.90;99.90
57390;DHT22;43217;52.694;6.214;2022-12-13T16:17:22;-1.90;99.90
57390;DHT22;43217;52.694;6.214;2022-12-13T16:19:50;-1.90;99.90
57390;DHT22;43217;52.694;6.214;2022-12-13T16:22:17;-2.00;99.90
57390;DHT22;43217;52.694;6.214;2022-12-13T16:24:46;-2.00;99.90
57390;DHT22;43217;52.694;6.214;2022-12-13T16:27:13;-2.00;99.90
57390;DHT22;43217;52.694;6.214;2022-12-13T16:29:38;-2.10;99.90
57390;DHT22;43217;52.694;6.214;2022-12-13T16:32:04;-2.00;99.90
57390;DHT22;43217;52.694;6.214;2022-12-13T16:34:30;-2.10;99.90
57390;DHT22;43217;52.694;6.214;2022-12-13T16:36:55;-2.10;99.90
57390;DHT22;43217;52.694;6.214;2022-12-13T16:39:24;-2.10;99.90
57390;DHT22;43217;52.694;6.214;2022-12-13T16:41:50;-2.10;99.90
57390;DHT22;43217;52.694;6.214;2022-12-13T16:44:21;-2.10;99.90
57390;DHT22;43217;52.694;6.214;2022-12-13T16:46:47;-2.00;99.90
57390;DHT22;43217;52.694;6.214;2022-12-13T16:49:23;-2.00;99.90
57390;DHT22;43217;52.694;6.214;2022-12-13T16:51:49;-2.00;99.90
57390;DHT22;43217;52.694;6.214;2022-12-13T16:54:17;-2.10;99.90
57390;DHT22;43217;52.694;6.214;2022-12-13T16:56:42;-2.00;99.90
57390;DHT22;43217;52.694;6.214;2022-12-13T16:59:12;-2.00;99.90
57390;DHT22;43217;52.694;6.214;2022-12-13T17:01:38;-2.00;99.90
57390;DHT22;43217;52.694;6.214;2022-12-13T17:04:04;-2.00;99.90
57390;DHT22;43217;52.694;6.214;2022-12-13T17:06:29;-2.00;99.90
57390;DHT22;43217;52.694;6.214;2022-12-13T17:08:55;-2.00;99.90
57390;DHT22;43217;52.694;6.214;2022-12-13T17:11:21;-2.00;99.90
57390;DHT22;43217;52.694;6.214;2022-12-13T17:13:46;-2.00;99.90
57390;DHT22;43217;52.694;6.214;2022-12-13T17:16:14;-1.90;99.90
57390;DHT22;43217;52.694;6.214;2022-12-13T17:18:40;-1.90;99.90
57390;DHT22;43217;52.694;6.214;2022-12-13T17:21:06;-1.90;99.90
57390;DHT22;43217;52.694;6.214;2022-12-13T17:23:32;-2.00;99.90
57390;DHT22;43217;52.694;6.214;2022-12-13T17:26:03;-1.90;99.90
57390;DHT22;43217;52.694;6.214;2022-12-13T17:28:29;-1.90;99.90
57390;DHT22;43217;52.694;6.214;2022-12-13T17:31:04;-1.90;99.90
57390;DHT22;43217;52.694;6.214;2022-12-13T17:33:29;-1.90;99.90
57390;DHT22;43217;52.694;6.214;2022-12-13T17:35:55;-1.90;99.90
57390;DHT22;43217;52.694;6.214;2022-12-13T17:38:20;-1.90;99.90